sensor_id;sensor_type;location;lat;lon;timestamp;P1;durP1;ratioP1;P2;durP2;ratioP2
11303;SDS011;5707;49.588;12.148;2024-01-06T00:01:02;5.15;;;3.15;;
11303;SDS011;5707;49.588;12.148;2024-01-06T00:03:27;3.35;;;2.97;;
11303;SDS011;5707;49.588;12.148;2024-01-06T00:05:53;3.45;;;3.15;;
11303;SDS011;5707;49.588;12.148;2024-01-06T00:08:19;4.28;;;3.67;;
11303;SDS011;5707;49.588;12.148;2024-01-06T00:10:44;4.28;;;3.85;;
11303;SDS011;5707;49.588;12.148;2024-01-06T00:13:10;3.30;;;3.10;;
11303;SDS011;5707;49.588;12.148;2024-01-06T00:15:35;4.20;;;3.80;;
11303;SDS011;5707;49.588;12.148;2024-01-06T00:18:01;3.47;;;3.17;;
11303;SDS011;5707;49.588;12.148;2024-01-06T00:20:27;3.85;;;3.28;;
11303;SDS011;5707;49.588;12.148;2024-01-06T00:22:53;3.22;;;3.00;;
11303;SDS011;5707;49.588;12.148;2024-01-06T00:25:18;6.63;;;3.35;;
11303;SDS011;5707;49.588;12.148;2024-01-06T00:27:44;4.75;;;3.97;;
11303;SDS011;5707;49.588;12.148;2024-01-06T00:30:09;3.70;;;3.35;;
11303;SDS011;5707;49.588;12.148;2024-01-06T00:32:35;3.05;;;2.78;;
11303;SDS011;5707;49.588;12.148;2024-01-06T00:35:01;3.83;;;3.10;;
11303;SDS011;5707;49.588;12.148;2024-01-06T00:37:27;3.50;;;3.20;;
11303;SDS011;5707;49.588;12.148;2024-01-06T00:39:52;3.15;;;2.90;;
11303;SDS011;5707;49.588;12.148;2024-01-06T00:42:18;3.55;;;2.85;;
11303;SDS011;5707;49.588;12.148;2024-01-06T00:44:43;3.05;;;2.80;;
11303;SDS011;5707;49.588;12.148;2024-01-06T00:47:10;3.83;;;3.33;;
11303;SDS011;5707;49.588;12.148;2024-01-06T00:49:36;4.63;;;3.05;;
11303;SDS011;5707;49.588;12.148;2024-01-06T00:52:01;3.20;;;2.70;;
11303;SDS011;5707;49.588;12.148;2024-01-06T00:54:27;3.05;;;2.85;;
11303;SDS011;5707;49.588;12.148;2024-01-06T00:56:53;3.45;;;3.15;;
11303;SDS011;5707;49.588;12.148;2024-01-06T00:59:18;3.25;;;2.42;;
11303;SDS011;5707;49.588;12.148;2024-01-06T01:01:44;2.97;;;2.60;;
11303;SDS011;5707;49.588;12.148;2024-01-06T01:04:09;2.55;;;2.40;;
11303;SDS011;5707;49.588;12.148;2024-01-06T01:06:36;2.47;;;2.25;;
11303;SDS011;5707;49.588;12.148;2024-01-06T01:09:02;2.42;;;2.22;;
11303;SDS011;5707;49.588;12.148;2024-01-06T01:11:29;2.72;;;2.53;;
11303;SDS011;5707;49.588;12.148;2024-01-06T01:13:55;4.68;;;2.33;;
11303;SDS011;5707;49.588;12.148;2024-01-06T01:16:20;2.60;;;1.88;;
11303;SDS011;5707;49.588;12.148;2024-01-06T01:18:46;3.75;;;2.42;;
11303;SDS011;5707;49.588;12.148;2024-01-06T01:21:12;2.30;;;2.10;;
11303;SDS011;5707;49.588;12.148;2024-01-06T01:23:37;2.33;;;1.83;;
11303;SDS011;5707;49.588;12.148;2024-01-06T01:26:03;2.60;;;2.35;;
11303;SDS011;5707;49.588;12.148;2024-01-06T01:28:28;3.75;;;2.40;;
11303;SDS011;5707;49.588;12.148;2024-01-06T01:30:54;4.45;;;2.38;;
11303;SDS011;5707;49.588;12.148;2024-01-06T01:33:19;3.50;;;2.08;;
11303;SDS011;5707;49.588;12.148;2024-01-06T01:35:45;2.63;;;2.42;;
11303;SDS011;5707;49.588;12.148;2024-01-06T01:38:10;2.80;;;2.60;;
11303;SDS011;5707;49.588;12.148;2024-01-06T01:40:36;2.47;;;2.28;;
11303;SDS011;5707;49.588;12.148;2024-01-06T01:43:01;2.47;;;2.20;;
11303;SDS011;5707;49.588;12.148;2024-01-06T01:45:27;4.80;;;2.15;;
11303;SDS011;5707;49.588;12.148;2024-01-06T01:47:53;2.17;;;2.00;;
11303;SDS011;5707;49.588;12.148;2024-01-06T01:50:18;2.55;;;1.85;;
11303;SDS011;5707;49.588;12.148;2024-01-06T01:52:47;2.75;;;2.55;;
11303;SDS011;5707;49.588;12.148;2024-01-06T01:55:13;2.55;;;2.17;;
11303;SDS011;5707;49.588;12.148;2024-01-06T01:57:38;2.67;;;2.20;;
11303;SDS011;5707;49.588;12.148;2024-01-06T02:00:04;2.97;;;2.10;;
11303;SDS011;5707;49.588;12.148;2024-01-06T02:02:31;5.78;;;1.98;;
11303;SDS011;5707;49.588;12.148;2024-01-06T02:04:57;2.05;;;1.90;;
11303;SDS011;5707;49.588;12.148;2024-01-06T02:07:23;2.55;;;2.35;;
11303;SDS011;5707;49.588;12.148;2024-01-06T02:09:48;3.28;;;1.98;;
11303;SDS011;5707;49.588;12.148;2024-01-06T02:12:14;3.15;;;2.22;;
11303;SDS011;5707;49.588;12.148;2024-01-06T02:14:39;2.90;;;2.17;;
11303;SDS011;5707;49.588;12.148;2024-01-06T02:17:06;3.65;;;2.20;;
11303;SDS011;5707;49.588;12.148;2024-01-06T02:19:32;3.67;;;2.45;;
11303;SDS011;5707;49.588;12.148;2024-01-06T02:21:57;3.38;;;2.33;;
11303;SDS011;5707;49.588;12.148;2024-01-06T02:24:23;2.47;;;2.28;;
11303;SDS011;5707;49.588;12.148;2024-01-06T02:26:48;2.65;;;2.35;;
11303;SDS011;5707;49.588;12.148;2024-01-06T02:29:14;2.40;;;2.15;;
11303;SDS011;5707;49.588;12.148;2024-01-06T02:31:39;2.45;;;2.22;;
11303;SDS011;5707;49.588;12.148;2024-01-06T02:34:05;3.88;;;2.85;;
11303;SDS011;5707;49.588;12.148;2024-01-06T02:36:30;4.00;;;2.78;;
11303;SDS011;5707;49.588;12.148;2024-01-06T02:38:56;2.85;;;2.53;;
11303;SDS011;5707;49.588;12.148;2024-01-06T02:41:22;3.20;;;2.72;;
11303;SDS011;5707;49.588;12.148;2024-01-06T02:43:47;3.72;;;2.67;;
11303;SDS011;5707;49.588;12.148;2024-01-06T02:46:13;3.45;;;2.65;;
11303;SDS011;5707;49.588;12.148;2024-01-06T02:48:38;3.05;;;2.80;;
11303;SDS011;5707;49.588;12.148;2024-01-06T02:51:04;2.55;;;2.35;;
11303;SDS011;5707;49.588;12.148;2024-01-06T02:53:29;3.75;;;2.83;;
11303;SDS011;5707;49.588;12.148;2024-01-06T02:55:55;3.63;;;2.60;;
11303;SDS011;5707;49.588;12.148;2024-01-06T02:58:20;2.72;;;2.40;;
11303;SDS011;5707;49.588;12.148;2024-01-06T03:00:46;2.55;;;2.33;;
11303;SDS011;5707;49.588;12.148;2024-01-06T03:03:11;4.03;;;2.47;;
11303;SDS011;5707;49.588;12.148;2024-01-06T03:05:37;4.25;;;2.33;;
11303;SDS011;5707;49.588;12.148;2024-01-06T03:08:03;4.05;;;2.40;;
11303;SDS011;5707;49.588;12.148;2024-01-06T03:10:29;2.70;;;2.42;;
11303;SDS011;5707;49.588;12.148;2024-01-06T03:12:54;3.45;;;2.55;;
11303;SDS011;5707;49.588;12.148;2024-01-06T03:15:20;2.67;;;2.47;;
11303;SDS011;5707;49.588;12.148;2024-01-06T03:17:45;2.95;;;2.60;;
11303;SDS011;5707;49.588;12.148;2024-01-06T03:20:11;2.40;;;2.20;;
11303;SDS011;5707;49.588;12.148;2024-01-06T03:22:37;3.22;;;2.78;;
11303;SDS011;5707;49.588;12.148;2024-01-06T03:25:03;4.72;;;2.40;;
11303;SDS011;5707;49.588;12.148;2024-01-06T03:27:29;3.38;;;2.92;;
11303;SDS011;5707;49.588;12.148;2024-01-06T03:29:55;3.03;;;2.55;;
11303;SDS011;5707;49.588;12.148;2024-01-06T03:32:20;2.25;;;2.05;;
11303;SDS011;5707;49.588;12.148;2024-01-06T03:34:46;3.63;;;2.47;;
11303;SDS011;5707;49.588;12.148;2024-01-06T03:37:12;3.97;;;2.47;;
11303;SDS011;5707;49.588;12.148;2024-01-06T03:39:37;2.70;;;2.50;;
11303;SDS011;5707;49.588;12.148;2024-01-06T03:42:03;2.75;;;2.55;;
11303;SDS011;5707;49.588;12.148;2024-01-06T03:44:30;3.00;;;2.72;;
11303;SDS011;5707;49.588;12.148;2024-01-06T03:46:58;2.50;;;2.30;;
11303;SDS011;5707;49.588;12.148;2024-01-06T03:49:24;3.10;;;2.30;;
11303;SDS011;5707;49.588;12.148;2024-01-06T03:51:50;4.47;;;2.60;;
11303;SDS011;5707;49.588;12.148;2024-01-06T03:54:15;2.70;;;2.50;;
11303;SDS011;5707;49.588;12.148;2024-01-06T03:56:41;3.00;;;2.70;;
11303;SDS011;5707;49.588;12.148;2024-01-06T03:59:07;3.28;;;2.63;;
11303;SDS011;5707;49.588;12.148;2024-01-06T04:01:32;3.13;;;2.83;;
11303;SDS011;5707;49.588;12.148;2024-01-06T04:04:02;3.13;;;2.65;;
11303;SDS011;5707;49.588;12.148;2024-01-06T04:06:28;4.75;;;2.70;;
11303;SDS011;5707;49.588;12.148;2024-01-06T04:08:54;3.67;;;2.97;;
11303;SDS011;5707;49.588;12.148;2024-01-06T04:11:20;2.75;;;2.55;;
11303;SDS011;5707;49.588;12.148;2024-01-06T04:13:48;2.85;;;2.65;;
11303;SDS011;5707;49.588;12.148;2024-01-06T04:16:14;3.10;;;2.30;;
11303;SDS011;5707;49.588;12.148;2024-01-06T04:18:39;2.78;;;2.58;;
11303;SDS011;5707;49.588;12.148;2024-01-06T04:21:05;2.90;;;2.70;;
11303;SDS011;5707;49.588;12.148;2024-01-06T04:23:31;2.55;;;2.35;;
11303;SDS011;5707;49.588;12.148;2024-01-06T04:25:56;3.42;;;2.70;;
11303;SDS011;5707;49.588;12.148;2024-01-06T04:28:22;3.40;;;2.65;;
11303;SDS011;5707;49.588;12.148;2024-01-06T04:30:47;2.67;;;2.47;;
11303;SDS011;5707;49.588;12.148;2024-01-06T04:33:13;2.95;;;2.47;;
11303;SDS011;5707;49.588;12.148;2024-01-06T04:35:39;2.55;;;2.33;;
11303;SDS011;5707;49.588;12.148;2024-01-06T04:38:04;3.97;;;2.42;;
11303;SDS011;5707;49.588;12.148;2024-01-06T04:40:30;3.03;;;2.17;;
11303;SDS011;5707;49.588;12.148;2024-01-06T04:42:55;2.65;;;2.45;;
11303;SDS011;5707;49.588;12.148;2024-01-06T04:45:21;3.40;;;2.70;;
11303;SDS011;5707;49.588;12.148;2024-01-06T04:47:49;3.22;;;2.92;;
11303;SDS011;5707;49.588;12.148;2024-01-06T04:50:15;2.97;;;2.70;;
11303;SDS011;5707;49.588;12.148;2024-01-06T04:52:40;3.25;;;2.40;;
11303;SDS011;5707;49.588;12.148;2024-01-06T04:55:06;3.00;;;2.80;;
11303;SDS011;5707;49.588;12.148;2024-01-06T04:57:32;3.33;;;2.75;;
11303;SDS011;5707;49.588;12.148;2024-01-06T04:59:57;4.32;;;3.22;;
11303;SDS011;5707;49.588;12.148;2024-01-06T05:02:23;3.03;;;2.80;;
11303;SDS011;5707;49.588;12.148;2024-01-06T05:04:49;4.05;;;3.00;;
11303;SDS011;5707;49.588;12.148;2024-01-06T05:07:14;2.78;;;2.42;;
11303;SDS011;5707;49.588;12.148;2024-01-06T05:09:40;3.40;;;3.08;;
11303;SDS011;5707;49.588;12.148;2024-01-06T05:12:06;3.58;;;3.38;;
11303;SDS011;5707;49.588;12.148;2024-01-06T05:14:31;3.53;;;3.33;;
11303;SDS011;5707;49.588;12.148;2024-01-06T05:16:57;5.22;;;3.60;;
11303;SDS011;5707;49.588;12.148;2024-01-06T05:19:22;4.57;;;3.17;;
11303;SDS011;5707;49.588;12.148;2024-01-06T05:21:48;3.58;;;3.28;;
11303;SDS011;5707;49.588;12.148;2024-01-06T05:24:14;3.85;;;3.55;;
11303;SDS011;5707;49.588;12.148;2024-01-06T05:26:40;3.92;;;3.63;;
11303;SDS011;5707;49.588;12.148;2024-01-06T05:29:05;4.03;;;3.35;;
11303;SDS011;5707;49.588;12.148;2024-01-06T05:31:31;4.15;;;3.85;;
11303;SDS011;5707;49.588;12.148;2024-01-06T05:33:56;3.70;;;3.40;;
11303;SDS011;5707;49.588;12.148;2024-01-06T05:36:22;3.90;;;3.58;;
11303;SDS011;5707;49.588;12.148;2024-01-06T05:38:48;4.80;;;3.63;;
11303;SDS011;5707;49.588;12.148;2024-01-06T05:41:13;3.50;;;3.20;;
11303;SDS011;5707;49.588;12.148;2024-01-06T05:43:39;4.72;;;3.47;;
11303;SDS011;5707;49.588;12.148;2024-01-06T05:46:04;3.97;;;3.33;;
11303;SDS011;5707;49.588;12.148;2024-01-06T05:48:30;3.72;;;3.42;;
11303;SDS011;5707;49.588;12.148;2024-01-06T05:50:55;3.60;;;2.55;;
11303;SDS011;5707;49.588;12.148;2024-01-06T05:53:21;3.85;;;2.90;;
11303;SDS011;5707;49.588;12.148;2024-01-06T05:55:47;3.38;;;3.03;;
11303;SDS011;5707;49.588;12.148;2024-01-06T05:58:12;3.35;;;2.97;;
11303;SDS011;5707;49.588;12.148;2024-01-06T06:00:38;3.28;;;3.00;;
11303;SDS011;5707;49.588;12.148;2024-01-06T06:03:04;3.97;;;3.67;;
11303;SDS011;5707;49.588;12.148;2024-01-06T06:05:29;4.15;;;3.85;;
11303;SDS011;5707;49.588;12.148;2024-01-06T06:07:55;3.95;;;3.60;;
11303;SDS011;5707;49.588;12.148;2024-01-06T06:10:21;3.67;;;3.38;;
11303;SDS011;5707;49.588;12.148;2024-01-06T06:12:46;4.88;;;3.20;;
11303;SDS011;5707;49.588;12.148;2024-01-06T06:15:12;3.72;;;2.78;;
11303;SDS011;5707;49.588;12.148;2024-01-06T06:17:38;3.88;;;3.13;;
11303;SDS011;5707;49.588;12.148;2024-01-06T06:20:04;3.40;;;3.08;;
11303;SDS011;5707;49.588;12.148;2024-01-06T06:22:31;4.03;;;3.08;;
11303;SDS011;5707;49.588;12.148;2024-01-06T06:24:57;3.45;;;3.08;;
11303;SDS011;5707;49.588;12.148;2024-01-06T06:27:26;3.45;;;3.03;;
11303;SDS011;5707;49.588;12.148;2024-01-06T06:29:52;3.10;;;2.83;;
11303;SDS011;5707;49.588;12.148;2024-01-06T06:32:18;4.80;;;3.10;;
11303;SDS011;5707;49.588;12.148;2024-01-06T06:34:44;3.72;;;3.42;;
11303;SDS011;5707;49.588;12.148;2024-01-06T06:37:10;4.00;;;3.35;;
11303;SDS011;5707;49.588;12.148;2024-01-06T06:39:35;3.28;;;3.08;;
11303;SDS011;5707;49.588;12.148;2024-01-06T06:42:01;3.33;;;3.13;;
11303;SDS011;5707;49.588;12.148;2024-01-06T06:44:27;3.42;;;3.13;;
11303;SDS011;5707;49.588;12.148;2024-01-06T06:46:54;3.67;;;2.70;;
11303;SDS011;5707;49.588;12.148;2024-01-06T06:49:20;3.70;;;3.40;;
11303;SDS011;5707;49.588;12.148;2024-01-06T06:51:45;3.70;;;3.40;;
11303;SDS011;5707;49.588;12.148;2024-01-06T06:54:13;3.58;;;3.28;;
11303;SDS011;5707;49.588;12.148;2024-01-06T06:56:40;3.55;;;3.25;;
11303;SDS011;5707;49.588;12.148;2024-01-06T06:59:06;3.58;;;3.28;;
11303;SDS011;5707;49.588;12.148;2024-01-06T07:01:32;3.10;;;2.90;;
11303;SDS011;5707;49.588;12.148;2024-01-06T07:03:57;3.58;;;3.28;;
11303;SDS011;5707;49.588;12.148;2024-01-06T07:06:23;4.15;;;3.45;;
11303;SDS011;5707;49.588;12.148;2024-01-06T07:08:49;3.35;;;3.05;;
11303;SDS011;5707;49.588;12.148;2024-01-06T07:11:14;5.72;;;3.78;;
11303;SDS011;5707;49.588;12.148;2024-01-06T07:13:43;3.35;;;3.05;;
11303;SDS011;5707;49.588;12.148;2024-01-06T07:16:08;10.48;;;4.63;;
11303;SDS011;5707;49.588;12.148;2024-01-06T07:18:34;6.13;;;4.18;;
11303;SDS011;5707;49.588;12.148;2024-01-06T07:21:00;8.32;;;4.75;;
11303;SDS011;5707;49.588;12.148;2024-01-06T07:23:25;8.63;;;4.70;;
11303;SDS011;5707;49.588;12.148;2024-01-06T07:25:51;3.75;;;3.38;;
11303;SDS011;5707;49.588;12.148;2024-01-06T07:28:16;4.43;;;3.65;;
11303;SDS011;5707;49.588;12.148;2024-01-06T07:30:42;5.07;;;4.30;;
11303;SDS011;5707;49.588;12.148;2024-01-06T07:33:08;3.90;;;3.50;;
11303;SDS011;5707;49.588;12.148;2024-01-06T07:35:34;4.40;;;4.00;;
11303;SDS011;5707;49.588;12.148;2024-01-06T07:37:59;4.15;;;3.80;;
11303;SDS011;5707;49.588;12.148;2024-01-06T07:40:25;3.97;;;3.67;;
11303;SDS011;5707;49.588;12.148;2024-01-06T07:42:50;4.00;;;3.70;;
11303;SDS011;5707;49.588;12.148;2024-01-06T07:45:16;3.47;;;3.25;;
11303;SDS011;5707;49.588;12.148;2024-01-06T07:47:42;4.28;;;3.58;;
11303;SDS011;5707;49.588;12.148;2024-01-06T07:50:08;3.55;;;3.25;;
11303;SDS011;5707;49.588;12.148;2024-01-06T07:52:34;3.60;;;3.30;;
11303;SDS011;5707;49.588;12.148;2024-01-06T07:55:00;3.88;;;3.58;;
11303;SDS011;5707;49.588;12.148;2024-01-06T07:57:25;4.88;;;4.38;;
11303;SDS011;5707;49.588;12.148;2024-01-06T07:59:51;4.38;;;3.97;;
11303;SDS011;5707;49.588;12.148;2024-01-06T08:02:16;5.25;;;4.10;;
11303;SDS011;5707;49.588;12.148;2024-01-06T08:04:42;6.45;;;4.10;;
11303;SDS011;5707;49.588;12.148;2024-01-06T08:07:08;7.35;;;4.78;;
11303;SDS011;5707;49.588;12.148;2024-01-06T08:09:33;7.53;;;4.45;;
11303;SDS011;5707;49.588;12.148;2024-01-06T08:11:59;5.47;;;3.78;;
11303;SDS011;5707;49.588;12.148;2024-01-06T08:14:24;5.47;;;3.45;;
11303;SDS011;5707;49.588;12.148;2024-01-06T08:16:50;3.80;;;3.08;;
11303;SDS011;5707;49.588;12.148;2024-01-06T08:19:15;4.18;;;3.67;;
11303;SDS011;5707;49.588;12.148;2024-01-06T08:21:41;4.00;;;3.63;;
11303;SDS011;5707;49.588;12.148;2024-01-06T08:24:06;5.55;;;3.83;;
11303;SDS011;5707;49.588;12.148;2024-01-06T08:26:32;4.30;;;3.90;;
11303;SDS011;5707;49.588;12.148;2024-01-06T08:28:58;4.35;;;4.03;;
11303;SDS011;5707;49.588;12.148;2024-01-06T08:31:24;4.28;;;3.97;;
11303;SDS011;5707;49.588;12.148;2024-01-06T08:33:49;4.53;;;3.67;;
11303;SDS011;5707;49.588;12.148;2024-01-06T08:36:15;5.78;;;3.83;;
11303;SDS011;5707;49.588;12.148;2024-01-06T08:38:41;4.93;;;4.53;;
11303;SDS011;5707;49.588;12.148;2024-01-06T08:41:06;3.80;;;3.50;;
11303;SDS011;5707;49.588;12.148;2024-01-06T08:43:32;4.10;;;3.80;;
11303;SDS011;5707;49.588;12.148;2024-01-06T08:45:58;3.95;;;3.65;;
11303;SDS011;5707;49.588;12.148;2024-01-06T08:48:24;3.80;;;3.50;;
11303;SDS011;5707;49.588;12.148;2024-01-06T08:50:50;3.97;;;3.67;;
11303;SDS011;5707;49.588;12.148;2024-01-06T08:53:16;4.57;;;4.28;;
11303;SDS011;5707;49.588;12.148;2024-01-06T08:55:41;4.93;;;4.63;;
11303;SDS011;5707;49.588;12.148;2024-01-06T08:58:07;5.63;;;5.13;;
11303;SDS011;5707;49.588;12.148;2024-01-06T09:00:32;4.90;;;4.60;;
11303;SDS011;5707;49.588;12.148;2024-01-06T09:02:58;5.63;;;4.95;;
11303;SDS011;5707;49.588;12.148;2024-01-06T09:05:24;7.13;;;4.97;;
11303;SDS011;5707;49.588;12.148;2024-01-06T09:07:50;5.68;;;5.25;;
11303;SDS011;5707;49.588;12.148;2024-01-06T09:10:16;6.13;;;5.63;;
11303;SDS011;5707;49.588;12.148;2024-01-06T09:12:43;6.30;;;5.82;;
11303;SDS011;5707;49.588;12.148;2024-01-06T09:15:08;5.80;;;5.30;;
11303;SDS011;5707;49.588;12.148;2024-01-06T09:17:34;5.10;;;4.70;;
11303;SDS011;5707;49.588;12.148;2024-01-06T09:20:00;5.85;;;5.43;;
11303;SDS011;5707;49.588;12.148;2024-01-06T09:22:26;6.03;;;4.43;;
11303;SDS011;5707;49.588;12.148;2024-01-06T09:24:52;5.07;;;4.68;;
11303;SDS011;5707;49.588;12.148;2024-01-06T09:27:17;5.18;;;4.82;;
11303;SDS011;5707;49.588;12.148;2024-01-06T09:29:44;5.85;;;4.90;;
11303;SDS011;5707;49.588;12.148;2024-01-06T09:32:09;5.43;;;5.00;;
11303;SDS011;5707;49.588;12.148;2024-01-06T09:34:35;7.32;;;5.03;;
11303;SDS011;5707;49.588;12.148;2024-01-06T09:37:00;6.18;;;5.68;;
11303;SDS011;5707;49.588;12.148;2024-01-06T09:39:26;6.82;;;6.05;;
11303;SDS011;5707;49.588;12.148;2024-01-06T09:41:52;7.30;;;6.70;;
11303;SDS011;5707;49.588;12.148;2024-01-06T09:44:17;8.13;;;7.43;;
11303;SDS011;5707;49.588;12.148;2024-01-06T09:46:43;9.00;;;7.82;;
11303;SDS011;5707;49.588;12.148;2024-01-06T09:49:09;6.80;;;6.32;;
11303;SDS011;5707;49.588;12.148;2024-01-06T09:51:39;8.25;;;7.55;;
11303;SDS011;5707;49.588;12.148;2024-01-06T09:54:07;7.88;;;7.25;;
11303;SDS011;5707;49.588;12.148;2024-01-06T09:56:34;8.18;;;7.38;;
11303;SDS011;5707;49.588;12.148;2024-01-06T09:59:00;9.98;;;7.47;;
11303;SDS011;5707;49.588;12.148;2024-01-06T10:01:26;8.93;;;8.13;;
11303;SDS011;5707;49.588;12.148;2024-01-06T10:03:52;8.48;;;7.88;;
11303;SDS011;5707;49.588;12.148;2024-01-06T10:06:18;9.43;;;8.63;;
11303;SDS011;5707;49.588;12.148;2024-01-06T10:08:48;9.25;;;8.50;;
11303;SDS011;5707;49.588;12.148;2024-01-06T10:11:15;9.75;;;8.93;;
11303;SDS011;5707;49.588;12.148;2024-01-06T10:13:40;11.32;;;8.95;;
11303;SDS011;5707;49.588;12.148;2024-01-06T10:16:06;9.38;;;8.68;;
11303;SDS011;5707;49.588;12.148;2024-01-06T10:18:32;10.30;;;9.40;;
11303;SDS011;5707;49.588;12.148;2024-01-06T10:21:00;9.73;;;8.93;;
11303;SDS011;5707;49.588;12.148;2024-01-06T10:23:29;10.43;;;9.43;;
11303;SDS011;5707;49.588;12.148;2024-01-06T10:25:56;10.88;;;9.98;;
11303;SDS011;5707;49.588;12.148;2024-01-06T10:28:22;9.65;;;8.75;;
11303;SDS011;5707;49.588;12.148;2024-01-06T10:30:48;10.18;;;9.27;;
11303;SDS011;5707;49.588;12.148;2024-01-06T10:33:16;9.57;;;8.77;;
11303;SDS011;5707;49.588;12.148;2024-01-06T10:35:42;10.60;;;9.65;;
11303;SDS011;5707;49.588;12.148;2024-01-06T10:38:07;9.77;;;8.85;;
11303;SDS011;5707;49.588;12.148;2024-01-06T10:40:33;9.82;;;9.07;;
11303;SDS011;5707;49.588;12.148;2024-01-06T10:42:59;8.30;;;7.60;;
11303;SDS011;5707;49.588;12.148;2024-01-06T10:45:26;10.05;;;9.20;;
11303;SDS011;5707;49.588;12.148;2024-01-06T10:47:53;9.73;;;8.93;;
11303;SDS011;5707;49.588;12.148;2024-01-06T10:50:20;8.48;;;7.82;;
11303;SDS011;5707;49.588;12.148;2024-01-06T10:52:47;9.35;;;8.65;;
11303;SDS011;5707;49.588;12.148;2024-01-06T10:55:15;8.75;;;8.15;;
11303;SDS011;5707;49.588;12.148;2024-01-06T10:57:45;9.10;;;8.30;;
11303;SDS011;5707;49.588;12.148;2024-01-06T11:00:11;9.40;;;8.73;;
11303;SDS011;5707;49.588;12.148;2024-01-06T11:02:38;9.95;;;9.15;;
11303;SDS011;5707;49.588;12.148;2024-01-06T11:05:05;9.30;;;8.50;;
11303;SDS011;5707;49.588;12.148;2024-01-06T11:07:35;8.90;;;8.23;;
11303;SDS011;5707;49.588;12.148;2024-01-06T11:10:06;8.23;;;7.63;;
11303;SDS011;5707;49.588;12.148;2024-01-06T11:12:41;9.07;;;8.27;;
11303;SDS011;5707;49.588;12.148;2024-01-06T11:15:07;9.02;;;8.32;;
11303;SDS011;5707;49.588;12.148;2024-01-06T11:17:49;8.50;;;7.80;;
11303;SDS011;5707;49.588;12.148;2024-01-06T11:20:19;8.25;;;7.55;;
11303;SDS011;5707;49.588;12.148;2024-01-06T11:22:48;8.70;;;8.10;;
11303;SDS011;5707;49.588;12.148;2024-01-06T11:25:15;8.07;;;7.38;;
11303;SDS011;5707;49.588;12.148;2024-01-06T11:27:43;7.88;;;7.07;;
11303;SDS011;5707;49.588;12.148;2024-01-06T11:30:19;7.30;;;6.68;;
11303;SDS011;5707;49.588;12.148;2024-01-06T11:32:45;7.55;;;7.05;;
11303;SDS011;5707;49.588;12.148;2024-01-06T11:35:12;7.50;;;6.95;;
11303;SDS011;5707;49.588;12.148;2024-01-06T11:40:09;8.65;;;7.95;;
11303;SDS011;5707;49.588;12.148;2024-01-06T11:42:40;8.35;;;7.75;;
11303;SDS011;5707;49.588;12.148;2024-01-06T11:45:07;7.82;;;7.32;;
11303;SDS011;5707;49.588;12.148;2024-01-06T11:47:33;8.45;;;7.80;;
11303;SDS011;5707;49.588;12.148;2024-01-06T11:50:00;8.45;;;7.65;;
11303;SDS011;5707;49.588;12.148;2024-01-06T11:52:30;8.43;;;7.82;;
11303;SDS011;5707;49.588;12.148;2024-01-06T11:54:59;8.00;;;7.40;;
11303;SDS011;5707;49.588;12.148;2024-01-06T11:57:26;6.80;;;6.40;;
11303;SDS011;5707;49.588;12.148;2024-01-06T11:59:54;7.60;;;7.00;;
11303;SDS011;5707;49.588;12.148;2024-01-06T12:02:20;6.47;;;6.07;;
11303;SDS011;5707;49.588;12.148;2024-01-06T12:04:49;7.95;;;7.43;;
11303;SDS011;5707;49.588;12.148;2024-01-06T12:07:19;7.10;;;6.60;;
11303;SDS011;5707;49.588;12.148;2024-01-06T12:09:47;7.07;;;6.45;;
11303;SDS011;5707;49.588;12.148;2024-01-06T12:12:15;6.88;;;6.38;;
11303;SDS011;5707;49.588;12.148;2024-01-06T12:14:41;5.88;;;5.47;;
11303;SDS011;5707;49.588;12.148;2024-01-06T12:17:07;7.35;;;6.72;;
11303;SDS011;5707;49.588;12.148;2024-01-06T12:19:34;7.55;;;6.68;;
11303;SDS011;5707;49.588;12.148;2024-01-06T12:21:59;7.93;;;7.43;;
11303;SDS011;5707;49.588;12.148;2024-01-06T12:24:27;6.30;;;5.75;;
11303;SDS011;5707;49.588;12.148;2024-01-06T12:26:54;6.57;;;6.07;;
11303;SDS011;5707;49.588;12.148;2024-01-06T12:29:22;6.30;;;5.80;;
11303;SDS011;5707;49.588;12.148;2024-01-06T12:31:47;6.30;;;5.90;;
11303;SDS011;5707;49.588;12.148;2024-01-06T12:34:13;7.70;;;7.10;;
11303;SDS011;5707;49.588;12.148;2024-01-06T12:36:39;7.63;;;7.03;;
11303;SDS011;5707;49.588;12.148;2024-01-06T12:39:06;7.20;;;6.60;;
11303;SDS011;5707;49.588;12.148;2024-01-06T12:41:38;7.15;;;6.65;;
11303;SDS011;5707;49.588;12.148;2024-01-06T12:44:07;7.28;;;6.78;;
11303;SDS011;5707;49.588;12.148;2024-01-06T12:46:33;6.93;;;6.43;;
11303;SDS011;5707;49.588;12.148;2024-01-06T12:48:59;6.45;;;5.95;;
11303;SDS011;5707;49.588;12.148;2024-01-06T12:51:24;5.78;;;5.40;;
11303;SDS011;5707;49.588;12.148;2024-01-06T12:53:50;7.45;;;6.85;;
11303;SDS011;5707;49.588;12.148;2024-01-06T12:56:15;6.60;;;6.10;;
11303;SDS011;5707;49.588;12.148;2024-01-06T12:58:42;6.35;;;5.75;;
11303;SDS011;5707;49.588;12.148;2024-01-06T13:01:08;6.32;;;5.85;;
11303;SDS011;5707;49.588;12.148;2024-01-06T13:03:34;5.90;;;5.50;;
11303;SDS011;5707;49.588;12.148;2024-01-06T13:06:00;5.20;;;4.80;;
11303;SDS011;5707;49.588;12.148;2024-01-06T13:08:26;7.30;;;6.75;;
11303;SDS011;5707;49.588;12.148;2024-01-06T13:10:53;6.30;;;5.80;;
11303;SDS011;5707;49.588;12.148;2024-01-06T13:13:19;6.40;;;5.90;;
11303;SDS011;5707;49.588;12.148;2024-01-06T13:15:44;6.40;;;6.00;;
11303;SDS011;5707;49.588;12.148;2024-01-06T13:18:11;6.68;;;6.15;;
11303;SDS011;5707;49.588;12.148;2024-01-06T13:20:37;6.53;;;6.03;;
11303;SDS011;5707;49.588;12.148;2024-01-06T13:23:05;6.43;;;5.97;;
11303;SDS011;5707;49.588;12.148;2024-01-06T13:25:32;6.72;;;6.13;;
11303;SDS011;5707;49.588;12.148;2024-01-06T13:27:58;5.63;;;5.22;;
11303;SDS011;5707;49.588;12.148;2024-01-06T13:30:24;5.25;;;4.85;;
11303;SDS011;5707;49.588;12.148;2024-01-06T13:32:50;6.38;;;5.78;;
11303;SDS011;5707;49.588;12.148;2024-01-06T13:35:19;6.70;;;6.18;;
11303;SDS011;5707;49.588;12.148;2024-01-06T13:37:45;6.38;;;5.97;;
11303;SDS011;5707;49.588;12.148;2024-01-06T13:40:13;6.00;;;5.50;;
11303;SDS011;5707;49.588;12.148;2024-01-06T13:42:39;6.40;;;5.90;;
11303;SDS011;5707;49.588;12.148;2024-01-06T13:45:05;6.53;;;5.40;;
11303;SDS011;5707;49.588;12.148;2024-01-06T13:47:31;5.90;;;5.50;;
11303;SDS011;5707;49.588;12.148;2024-01-06T13:49:57;6.32;;;5.72;;
11303;SDS011;5707;49.588;12.148;2024-01-06T13:52:23;6.32;;;5.88;;
11303;SDS011;5707;49.588;12.148;2024-01-06T13:54:49;5.57;;;5.18;;
11303;SDS011;5707;49.588;12.148;2024-01-06T13:57:16;6.63;;;6.05;;
11303;SDS011;5707;49.588;12.148;2024-01-06T13:59:42;6.13;;;5.63;;
11303;SDS011;5707;49.588;12.148;2024-01-06T14:02:10;6.18;;;5.78;;
11303;SDS011;5707;49.588;12.148;2024-01-06T14:04:36;6.50;;;6.00;;
11303;SDS011;5707;49.588;12.148;2024-01-06T14:07:02;6.18;;;5.68;;
11303;SDS011;5707;49.588;12.148;2024-01-06T14:09:28;6.35;;;5.75;;
11303;SDS011;5707;49.588;12.148;2024-01-06T14:11:53;5.63;;;5.22;;
11303;SDS011;5707;49.588;12.148;2024-01-06T14:14:19;6.20;;;5.70;;
11303;SDS011;5707;49.588;12.148;2024-01-06T14:16:45;6.25;;;5.75;;
11303;SDS011;5707;49.588;12.148;2024-01-06T14:19:12;5.72;;;5.22;;
11303;SDS011;5707;49.588;12.148;2024-01-06T14:21:37;5.82;;;5.32;;
11303;SDS011;5707;49.588;12.148;2024-01-06T14:24:04;5.88;;;5.47;;
11303;SDS011;5707;49.588;12.148;2024-01-06T14:26:30;6.22;;;5.72;;
11303;SDS011;5707;49.588;12.148;2024-01-06T14:28:57;6.57;;;6.07;;
11303;SDS011;5707;49.588;12.148;2024-01-06T14:31:23;6.00;;;5.45;;
11303;SDS011;5707;49.588;12.148;2024-01-06T14:33:49;5.90;;;5.43;;
11303;SDS011;5707;49.588;12.148;2024-01-06T14:36:15;6.10;;;5.70;;
11303;SDS011;5707;49.588;12.148;2024-01-06T14:38:40;6.95;;;5.80;;
11303;SDS011;5707;49.588;12.148;2024-01-06T14:41:06;5.88;;;5.47;;
11303;SDS011;5707;49.588;12.148;2024-01-06T14:43:31;6.07;;;5.65;;